sensor_id;sensor_type;location;lat;lon;timestamp;pressure;altitude;pressure_sealevel;temperature;humidity
13314;BME280;6725;48.112;11.604;2023-02-21T00:01:27;95779.00;;;5.84;100.00
13314;BME280;6725;48.112;11.604;2023-02-21T00:04:11;95771.06;;;5.76;100.00
13314;BME280;6725;48.112;11.604;2023-02-21T00:06:55;95773.34;;;5.74;100.00
13314;BME280;6725;48.112;11.604;2023-02-21T00:09:39;95771.00;;;5.72;100.00
13314;BME280;6725;48.112;11.604;2023-02-21T00:12:23;95772.50;;;5.70;100.00
13314;BME280;6725;48.112;11.604;2023-02-21T00:15:10;95768.25;;;5.69;100.00
13314;BME280;6725;48.112;11.604;2023-02-21T00:17:54;95765.41;;;5.62;100.00
13314;BME280;6725;48.112;11.604;2023-02-21T00:20:38;95766.84;;;5.56;100.00
13314;BME280;6725;48.112;11.604;2023-02-21T00:23:22;95769.88;;;5.51;100.00
13314;BME280;6725;48.112;11.604;2023-02-21T00:26:06;95762.91;;;5.50;100.00
13314;BME280;6725;48.112;11.604;2023-02-21T00:28:50;95766.34;;;5.47;100.00
13314;BME280;6725;48.112;11.604;2023-02-21T00:31:34;95763.19;;;5.45;100.00
13314;BME280;6725;48.112;11.604;2023-02-21T00:34:18;95755.03;;;5.41;100.00
13314;BME280;6725;48.112;11.604;2023-02-21T00:37:02;95762.78;;;5.43;100.00
13314;BME280;6725;48.112;11.604;2023-02-21T00:39:46;95754.66;;;5.43;100.00
13314;BME280;6725;48.112;11.604;2023-02-21T00:42:30;95759.63;;;5.41;100.00
13314;BME280;6725;48.112;11.604;2023-02-21T00:45:14;95758.09;;;5.40;100.00
13314;BME280;6725;48.112;11.604;2023-02-21T00:47:58;95753.94;;;5.46;100.00
13314;BME280;6725;48.112;11.604;2023-02-21T00:50:42;95749.06;;;5.55;100.00
13314;BME280;6725;48.112;11.604;2023-02-21T00:53:26;95755.13;;;5.48;100.00
13314;BME280;6725;48.112;11.604;2023-02-21T00:56:10;95749.88;;;5.59;100.00
13314;BME280;6725;48.112;11.604;2023-02-21T00:58:54;95753.97;;;5.72;100.00
13314;BME280;6725;48.112;11.604;2023-02-21T01:01:38;95744.69;;;5.73;100.00
13314;BME280;6725;48.112;11.604;2023-02-21T01:04:22;95749.28;;;5.69;100.00
13314;BME280;6725;48.112;11.604;2023-02-21T01:07:06;95749.56;;;5.64;100.00
13314;BME280;6725;48.112;11.604;2023-02-21T01:09:50;95753.69;;;5.54;100.00
13314;BME280;6725;48.112;11.604;2023-02-21T01:12:34;95743.47;;;5.44;100.00
13314;BME280;6725;48.112;11.604;2023-02-21T01:15:18;95741.84;;;5.40;100.00
13314;BME280;6725;48.112;11.604;2023-02-21T01:18:02;95741.00;;;5.36;100.00
13314;BME280;6725;48.112;11.604;2023-02-21T01:20:46;95736.97;;;5.26;100.00
13314;BME280;6725;48.112;11.604;2023-02-21T01:23:30;95738.41;;;5.20;100.00
13314;BME280;6725;48.112;11.604;2023-02-21T01:26:14;95737.50;;;5.13;100.00
13314;BME280;6725;48.112;11.604;2023-02-21T01:28:58;95730.47;;;5.08;100.00
13314;BME280;6725;48.112;11.604;2023-02-21T01:31:42;95725.81;;;5.09;100.00
13314;BME280;6725;48.112;11.604;2023-02-21T01:34:26;95728.03;;;5.03;100.00
13314;BME280;6725;48.112;11.604;2023-02-21T01:37:10;95728.03;;;5.03;100.00
13314;BME280;6725;48.112;11.604;2023-02-21T01:39:54;95725.69;;;5.02;100.00
13314;BME280;6725;48.112;11.604;2023-02-21T01:42:38;95724.13;;;5.01;100.00
13314;BME280;6725;48.112;11.604;2023-02-21T01:48:19;95717.06;;;4.96;100.00
13314;BME280;6725;48.112;11.604;2023-02-21T01:51:06;95717.72;;;4.90;100.00
13314;BME280;6725;48.112;11.604;2023-02-21T01:53:52;95714.53;;;4.84;100.00
13314;BME280;6725;48.112;11.604;2023-02-21T01:56:36;95715.59;;;4.80;100.00
13314;BME280;6725;48.112;11.604;2023-02-21T01:59:21;95713.66;;;4.77;100.00
13314;BME280;6725;48.112;11.604;2023-02-21T02:02:18;95708.50;;;4.72;100.00
13314;BME280;6725;48.112;11.604;2023-02-21T02:05:06;95696.84;;;4.68;100.00
13314;BME280;6725;48.112;11.604;2023-02-21T02:07:53;95695.69;;;4.69;100.00
13314;BME280;6725;48.112;11.604;2023-02-21T02:10:37;95697.19;;;4.66;100.00
13314;BME280;6725;48.112;11.604;2023-02-21T02:16:02;95696.22;;;4.55;100.00
13314;BME280;6725;48.112;11.604;2023-02-21T02:34:08;95684.41;;;4.44;100.00
13314;BME280;6725;48.112;11.604;2023-02-21T02:36:50;95686.75;;;4.46;100.00
13314;BME280;6725;48.112;11.604;2023-02-21T02:41:51;95680.00;;;4.36;100.00
13314;BME280;6725;48.112;11.604;2023-02-21T02:44:32;95680.66;;;4.30;100.00
13314;BME280;6725;48.112;11.604;2023-02-21T02:47:03;95680.56;;;4.26;100.00
13314;BME280;6725;48.112;11.604;2023-02-21T02:49:32;95670.75;;;4.18;100.00
13314;BME280;6725;48.112;11.604;2023-02-21T02:52:08;95675.41;;;4.18;100.00
13314;BME280;6725;48.112;11.604;2023-02-21T02:54:34;95675.41;;;4.18;100.00
13314;BME280;6725;48.112;11.604;2023-02-21T02:57:02;95673.81;;;4.17;100.00
13314;BME280;6725;48.112;11.604;2023-02-21T02:59:34;95673.09;;;4.20;100.00
13314;BME280;6725;48.112;11.604;2023-02-21T03:04:43;95666.19;;;4.22;100.00
13314;BME280;6725;48.112;11.604;2023-02-21T03:07:33;95663.84;;;4.21;100.00
13314;BME280;6725;48.112;11.604;2023-02-21T03:10:20;95671.56;;;4.19;100.00
13314;BME280;6725;48.112;11.604;2023-02-21T03:13:00;95670.00;;;4.18;100.00
13314;BME280;6725;48.112;11.604;2023-02-21T03:15:44;95664.94;;;4.16;100.00
13314;BME280;6725;48.112;11.604;2023-02-21T03:18:23;95667.91;;;4.11;100.00
13314;BME280;6725;48.112;11.604;2023-02-21T03:20:54;95669.50;;;4.12;100.00
13314;BME280;6725;48.112;11.604;2023-02-21T03:23:22;95671.41;;;4.12;100.00
13314;BME280;6725;48.112;11.604;2023-02-21T03:25:50;95682.22;;;4.12;100.00
13314;BME280;6725;48.112;11.604;2023-02-21T03:28:16;95676.81;;;4.12;100.00
13314;BME280;6725;48.112;11.604;2023-02-21T03:30:43;95671.75;;;4.10;100.00
13314;BME280;6725;48.112;11.604;2023-02-21T03:33:10;95670.56;;;4.08;100.00
13314;BME280;6725;48.112;11.604;2023-02-21T03:35:35;95673.66;;;4.10;100.00
13314;BME280;6725;48.112;11.604;2023-02-21T03:38:00;95676.72;;;4.08;100.00
13314;BME280;6725;48.112;11.604;2023-02-21T03:40:28;95679.78;;;4.07;100.00
13314;BME280;6725;48.112;11.604;2023-02-21T03:42:55;95673.59;;;4.06;100.00
13314;BME280;6725;48.112;11.604;2023-02-21T03:45:21;95676.81;;;4.12;100.00
13314;BME280;6725;48.112;11.604;2023-02-21T03:47:47;95676.81;;;4.12;100.00
13314;BME280;6725;48.112;11.604;2023-02-21T03:50:13;95676.81;;;4.12;100.00
13314;BME280;6725;48.112;11.604;2023-02-21T03:52:38;95670.97;;;4.10;100.00
13314;BME280;6725;48.112;11.604;2023-02-21T03:55:05;95672.19;;;4.12;100.00
13314;BME280;6725;48.112;11.604;2023-02-21T03:57:30;95676.81;;;4.12;100.00
13314;BME280;6725;48.112;11.604;2023-02-21T03:59:56;95682.22;;;4.12;100.00
13314;BME280;6725;48.112;11.604;2023-02-21T04:02:21;95679.06;;;4.10;100.00
13314;BME280;6725;48.112;11.604;2023-02-21T04:04:46;95680.66;;;4.11;100.00
13314;BME280;6725;48.112;11.604;2023-02-21T04:07:13;95676.81;;;4.12;100.00
13314;BME280;6725;48.112;11.604;2023-02-21T04:09:38;95674.41;;;4.07;100.00
13314;BME280;6725;48.112;11.604;2023-02-21T04:12:04;95674.75;;;4.05;100.00
13314;BME280;6725;48.112;11.604;2023-02-21T04:14:29;95675.50;;;4.06;100.00
13314;BME280;6725;48.112;11.604;2023-02-21T04:16:55;95673.50;;;4.03;100.00
13314;BME280;6725;48.112;11.604;2023-02-21T04:19:20;95671.91;;;3.98;100.00
13314;BME280;6725;48.112;11.604;2023-02-21T04:21:46;95671.81;;;3.95;100.00
13314;BME280;6725;48.112;11.604;2023-02-21T04:24:11;95675.66;;;3.94;100.00
13314;BME280;6725;48.112;11.604;2023-02-21T04:26:36;95668.69;;;3.93;100.00
13314;BME280;6725;48.112;11.604;2023-02-21T04:29:02;95669.44;;;3.93;100.00
13314;BME280;6725;48.112;11.604;2023-02-21T04:31:27;95664.78;;;3.90;100.00
13314;BME280;6725;48.112;11.604;2023-02-21T04:33:53;95671.66;;;3.88;100.00
13314;BME280;6725;48.112;11.604;2023-02-21T04:36:18;95659.28;;;3.87;100.00
13314;BME280;6725;48.112;11.604;2023-02-21T04:38:43;95666.09;;;3.81;100.00
13314;BME280;6725;48.112;11.604;2023-02-21T04:41:08;95667.69;;;3.82;100.00
13314;BME280;6725;48.112;11.604;2023-02-21T04:43:34;95664.28;;;3.85;100.00
13314;BME280;6725;48.112;11.604;2023-02-21T04:45:59;95663.53;;;3.88;100.00
13314;BME280;6725;48.112;11.604;2023-02-21T04:48:27;95656.59;;;3.87;100.00
13314;BME280;6725;48.112;11.604;2023-02-21T04:50:53;95665.41;;;3.84;100.00
13314;BME280;6725;48.112;11.604;2023-02-21T04:53:18;95655.28;;;3.81;100.00
13314;BME280;6725;48.112;11.604;2023-02-21T04:55:44;95653.53;;;3.88;100.00
13314;BME280;6725;48.112;11.604;2023-02-21T04:58:09;95646.72;;;3.94;100.00
13314;BME280;6725;48.112;11.604;2023-02-21T05:00:34;95650.34;;;4.02;100.00
13314;BME280;6725;48.112;11.604;2023-02-21T05:03:00;95650.09;;;4.07;100.00
13314;BME280;6725;48.112;11.604;2023-02-21T05:05:25;95651.28;;;4.09;100.00
13314;BME280;6725;48.112;11.604;2023-02-21T05:07:50;95646.72;;;4.13;100.00
13314;BME280;6725;48.112;11.604;2023-02-21T05:10:16;95648.38;;;4.18;100.00
13314;BME280;6725;48.112;11.604;2023-02-21T05:12:42;95642.72;;;4.26;100.00
13314;BME280;6725;48.112;11.604;2023-02-21T05:15:10;95640.13;;;4.30;100.00
13314;BME280;6725;48.112;11.604;2023-02-21T05:17:36;95641.66;;;4.31;100.00
13314;BME280;6725;48.112;11.604;2023-02-21T05:20:02;95638.66;;;4.36;100.00
13314;BME280;6725;48.112;11.604;2023-02-21T05:22:28;95628.78;;;4.43;100.00
13314;BME280;6725;48.112;11.604;2023-02-21T05:24:53;95622.31;;;4.48;100.00
13314;BME280;6725;48.112;11.604;2023-02-21T05:27:19;95628.25;;;4.57;100.00
13314;BME280;6725;48.112;11.604;2023-02-21T05:29:50;95630.75;;;4.65;100.00
13314;BME280;6725;48.112;11.604;2023-02-21T05:32:17;95632.38;;;4.70;100.00
13314;BME280;6725;48.112;11.604;2023-02-21T05:34:43;95630.06;;;4.72;100.00
13314;BME280;6725;48.112;11.604;2023-02-21T05:37:09;95629.66;;;4.70;100.00
13314;BME280;6725;48.112;11.604;2023-02-21T05:39:35;95632.78;;;4.72;100.00
13314;BME280;6725;48.112;11.604;2023-02-21T05:42:01;95636.31;;;4.76;100.00
13314;BME280;6725;48.112;11.604;2023-02-21T05:44:26;95634.78;;;4.75;100.00
13314;BME280;6725;48.112;11.604;2023-02-21T05:46:51;95634.84;;;4.78;100.00
13314;BME280;6725;48.112;11.604;2023-02-21T05:49:17;95631.69;;;4.76;100.00
13314;BME280;6725;48.112;11.604;2023-02-21T05:51:42;95640.97;;;4.75;100.00
13314;BME280;6725;48.112;11.604;2023-02-21T05:54:12;95627.81;;;4.74;100.00
13314;BME280;6725;48.112;11.604;2023-02-21T05:56:39;95634.34;;;4.73;100.00
13314;BME280;6725;48.112;11.604;2023-02-21T05:59:05;95631.28;;;4.74;100.00
13314;BME280;6725;48.112;11.604;2023-02-21T06:01:31;95624.66;;;4.72;100.00
13314;BME280;6725;48.112;11.604;2023-02-21T06:03:56;95628.50;;;4.71;100.00
13314;BME280;6725;48.112;11.604;2023-02-21T06:06:21;95634.78;;;4.75;100.00
13314;BME280;6725;48.112;11.604;2023-02-21T06:08:48;95628.66;;;4.78;100.00
13314;BME280;6725;48.112;11.604;2023-02-21T06:11:15;95644.16;;;4.81;100.00
13314;BME280;6725;48.112;11.604;2023-02-21T06:13:45;95634.19;;;4.85;100.00
13314;BME280;6725;48.112;11.604;2023-02-21T06:16:11;95634.91;;;4.82;100.00
13314;BME280;6725;48.112;11.604;2023-02-21T06:18:36;95632.63;;;4.84;100.00
13314;BME280;6725;48.112;11.604;2023-02-21T06:21:01;95639.59;;;4.85;100.00
13314;BME280;6725;48.112;11.604;2023-02-21T06:23:27;95639.22;;;5.09;100.00
13314;BME280;6725;48.112;11.604;2023-02-21T06:25:52;95630.34;;;5.60;100.00
13314;BME280;6725;48.112;11.604;2023-02-21T06:28:17;95633.84;;;6.16;100.00
13314;BME280;6725;48.112;11.604;2023-02-21T06:30:43;95638.25;;;6.61;100.00
13314;BME280;6725;48.112;11.604;2023-02-21T06:33:08;95639.59;;;7.21;100.00
13314;BME280;6725;48.112;11.604;2023-02-21T06:35:33;95639.28;;;7.84;100.00
13314;BME280;6725;48.112;11.604;2023-02-21T06:37:59;95636.97;;;8.71;100.00
13314;BME280;6725;48.112;11.604;2023-02-21T06:40:24;95639.78;;;9.90;100.00
13314;BME280;6725;48.112;11.604;2023-02-21T06:42:50;95647.34;;;10.69;100.00
13314;BME280;6725;48.112;11.604;2023-02-21T06:45:15;95638.66;;;10.92;100.00
13314;BME280;6725;48.112;11.604;2023-02-21T06:47:40;95647.72;;;11.40;100.00
13314;BME280;6725;48.112;11.604;2023-02-21T06:50:06;95654.81;;;11.85;100.00
13314;BME280;6725;48.112;11.604;2023-02-21T06:52:31;95657.94;;;12.24;95.97
13314;BME280;6725;48.112;11.604;2023-02-21T06:54:56;95657.69;;;13.12;91.73
13314;BME280;6725;48.112;11.604;2023-02-21T06:57:22;95661.41;;;13.25;85.15
13314;BME280;6725;48.112;11.604;2023-02-21T06:59:47;95659.31;;;13.09;85.63
13314;BME280;6725;48.112;11.604;2023-02-21T07:02:18;95671.97;;;13.53;83.08
13314;BME280;6725;48.112;11.604;2023-02-21T07:04:45;95663.47;;;13.44;83.70
13314;BME280;6725;48.112;11.604;2023-02-21T07:07:11;95669.91;;;13.34;83.47
13314;BME280;6725;48.112;11.604;2023-02-21T07:09:36;95666.03;;;13.32;84.57
13314;BME280;6725;48.112;11.604;2023-02-21T07:12:02;95676.78;;;13.72;83.90
13314;BME280;6725;48.112;11.604;2023-02-21T07:14:28;95676.19;;;13.84;80.02
13314;BME280;6725;48.112;11.604;2023-02-21T07:16:53;95678.72;;;14.44;77.07
13314;BME280;6725;48.112;11.604;2023-02-21T07:19:19;95685.50;;;14.59;73.87
13314;BME280;6725;48.112;11.604;2023-02-21T07:21:44;95680.22;;;15.43;71.46
13314;BME280;6725;48.112;11.604;2023-02-21T07:24:10;95684.25;;;16.06;67.81
13314;BME280;6725;48.112;11.604;2023-02-21T07:26:36;95678.91;;;16.76;63.41
13314;BME280;6725;48.112;11.604;2023-02-21T07:29:03;95683.44;;;17.11;60.03
13314;BME280;6725;48.112;11.604;2023-02-21T07:31:28;95682.22;;;17.53;57.23
13314;BME280;6725;48.112;11.604;2023-02-21T07:33:54;95677.81;;;18.52;52.84
13314;BME280;6725;48.112;11.604;2023-02-21T07:36:19;95675.75;;;18.18;53.46
13314;BME280;6725;48.112;11.604;2023-02-21T07:38:45;95675.22;;;18.91;52.02
13314;BME280;6725;48.112;11.604;2023-02-21T07:41:10;95682.72;;;18.69;50.06
13314;BME280;6725;48.112;11.604;2023-02-21T07:43:38;95691.91;;;18.07;51.89
13314;BME280;6725;48.112;11.604;2023-02-21T07:46:03;95692.91;;;18.72;51.23
13314;BME280;6725;48.112;11.604;2023-02-21T07:48:29;95693.44;;;18.80;50.89
13314;BME280;6725;48.112;11.604;2023-02-21T07:50:54;95696.16;;;19.14;49.28
13314;BME280;6725;48.112;11.604;2023-02-21T07:53:20;95692.94;;;19.15;49.83
13314;BME280;6725;48.112;11.604;2023-02-21T07:55:45;95691.47;;;19.02;49.34
13314;BME280;6725;48.112;11.604;2023-02-21T07:58:10;95694.50;;;19.38;49.15
13314;BME280;6725;48.112;11.604;2023-02-21T08:00:36;95699.75;;;20.06;46.46
13314;BME280;6725;48.112;11.604;2023-02-21T08:03:01;95694.41;;;19.81;46.14
13314;BME280;6725;48.112;11.604;2023-02-21T08:05:27;95701.09;;;20.32;44.76
13314;BME280;6725;48.112;11.604;2023-02-21T08:07:52;95696.94;;;20.46;45.33
13314;BME280;6725;48.112;11.604;2023-02-21T08:10:23;95704.75;;;20.11;43.64
13314;BME280;6725;48.112;11.604;2023-02-21T08:12:49;95708.53;;;20.44;44.30
13314;BME280;6725;48.112;11.604;2023-02-21T08:15:14;95704.53;;;21.62;42.08
13314;BME280;6725;48.112;11.604;2023-02-21T08:17:39;95698.41;;;21.31;41.54
13314;BME280;6725;48.112;11.604;2023-02-21T08:20:05;95704.28;;;21.24;41.33
13314;BME280;6725;48.112;11.604;2023-02-21T08:22:32;95702.59;;;21.27;41.51
13314;BME280;6725;48.112;11.604;2023-02-21T08:24:57;95702.91;;;21.20;41.53
13314;BME280;6725;48.112;11.604;2023-02-21T08:27:23;95697.19;;;21.92;40.30
13314;BME280;6725;48.112;11.604;2023-02-21T08:29:51;95693.66;;;21.91;39.33
13314;BME280;6725;48.112;11.604;2023-02-21T08:32:18;95699.59;;;21.57;39.91
13314;BME280;6725;48.112;11.604;2023-02-21T08:34:44;95698.22;;;21.53;40.14
13314;BME280;6725;48.112;11.604;2023-02-21T08:37:10;95699.16;;;22.00;38.67
13314;BME280;6725;48.112;11.604;2023-02-21T08:39:59;95699.84;;;21.86;39.69
13314;BME280;6725;48.112;11.604;2023-02-21T08:42:25;95705.06;;;21.93;38.87
13314;BME280;6725;48.112;11.604;2023-02-21T08:44:50;95707.28;;;21.80;39.07
13314;BME280;6725;48.112;11.604;2023-02-21T08:47:16;95706.50;;;21.89;38.79
13314;BME280;6725;48.112;11.604;2023-02-21T08:49:46;95712.09;;;21.62;39.50
13314;BME280;6725;48.112;11.604;2023-02-21T08:52:15;95699.66;;;22.31;39.12
13314;BME280;6725;48.112;11.604;2023-02-21T08:54:42;95696.50;;;22.48;38.95
13314;BME280;6725;48.112;11.604;2023-02-21T08:57:08;95705.91;;;21.58;39.75
13314;BME280;6725;48.112;11.604;2023-02-21T08:59:34;95692.13;;;21.81;39.58
13314;BME280;6725;48.112;11.604;2023-02-21T09:02:01;95704.91;;;21.97;39.14
13314;BME280;6725;48.112;11.604;2023-02-21T09:04:27;95709.94;;;22.16;39.06
13314;BME280;6725;48.112;11.604;2023-02-21T09:06:54;95707.97;;;21.30;40.71
13314;BME280;6725;48.112;11.604;2023-02-21T09:09:19;95714.91;;;21.53;40.41
13314;BME280;6725;48.112;11.604;2023-02-21T09:11:45;95702.59;;;21.95;40.00
13314;BME280;6725;48.112;11.604;2023-02-21T09:14:13;95703.97;;;22.32;39.42
13314;BME280;6725;48.112;11.604;2023-02-21T09:16:39;95703.59;;;22.16;39.11
13314;BME280;6725;48.112;11.604;2023-02-21T09:19:04;95699.56;;;21.75;39.20
13314;BME280;6725;48.112;11.604;2023-02-21T09:21:33;95706.31;;;22.25;39.45
13314;BME280;6725;48.112;11.604;2023-02-21T09:23:58;95699.75;;;22.70;38.06
13314;BME280;6725;48.112;11.604;2023-02-21T09:26:25;95705.56;;;22.81;38.41
13314;BME280;6725;48.112;11.604;2023-02-21T09:28:51;95705.34;;;22.37;38.49
13314;BME280;6725;48.112;11.604;2023-02-21T09:31:17;95700.19;;;21.79;37.88
13314;BME280;6725;48.112;11.604;2023-02-21T09:33:43;95705.00;;;22.11;38.31
13314;BME280;6725;48.112;11.604;2023-02-21T09:36:09;95714.84;;;22.54;37.90
13314;BME280;6725;48.112;11.604;2023-02-21T09:38:35;95705.88;;;22.83;36.65
13314;BME280;6725;48.112;11.604;2023-02-21T09:41:03;95703.38;;;22.28;36.98
13314;BME280;6725;48.112;11.604;2023-02-21T09:43:35;95706.59;;;22.69;36.51
13314;BME280;6725;48.112;11.604;2023-02-21T09:46:04;95707.53;;;23.04;35.70
13314;BME280;6725;48.112;11.604;2023-02-21T09:48:31;95700.69;;;22.10;37.34
13314;BME280;6725;48.112;11.604;2023-02-21T09:50:59;95697.56;;;22.50;36.62
13314;BME280;6725;48.112;11.604;2023-02-21T09:53:29;95704.56;;;22.36;37.20
13314;BME280;6725;48.112;11.604;2023-02-21T09:56:25;95689.97;;;22.98;35.56
13314;BME280;6725;48.112;11.604;2023-02-21T09:58:50;95695.44;;;22.12;36.54
13314;BME280;6725;48.112;11.604;2023-02-21T10:01:46;95685.59;;;22.59;36.14
13314;BME280;6725;48.112;11.604;2023-02-21T10:06:59;95693.25;;;22.73;35.79
13314;BME280;6725;48.112;11.604;2023-02-21T10:09:37;95690.59;;;22.93;36.15
13314;BME280;6725;48.112;11.604;2023-02-21T10:17:51;95683.44;;;23.39;35.22
13314;BME280;6725;48.112;11.604;2023-02-21T10:20:40;95682.03;;;23.20;34.16
13314;BME280;6725;48.112;11.604;2023-02-21T10:23:31;95688.63;;;22.13;34.94
13314;BME280;6725;48.112;11.604;2023-02-21T10:26:08;95690.72;;;22.98;35.48
13314;BME280;6725;48.112;11.604;2023-02-21T10:28:35;95684.81;;;22.82;35.60
13314;BME280;6725;48.112;11.604;2023-02-21T10:31:11;95689.28;;;23.03;34.88
13314;BME280;6725;48.112;11.604;2023-02-21T10:33:38;95695.31;;;22.87;35.48
13314;BME280;6725;48.112;11.604;2023-02-21T10:36:17;95692.09;;;22.56;36.27
13314;BME280;6725;48.112;11.604;2023-02-21T10:38:53;95699.91;;;22.42;35.96
13314;BME280;6725;48.112;11.604;2023-02-21T10:41:20;95702.19;;;22.20;36.64
13314;BME280;6725;48.112;11.604;2023-02-21T10:43:49;95696.06;;;22.64;35.73
13314;BME280;6725;48.112;11.604;2023-02-21T10:46:38;95698.69;;;22.91;34.72
13314;BME280;6725;48.112;11.604;2023-02-21T10:49:24;95696.53;;;22.06;36.58
13314;BME280;6725;48.112;11.604;2023-02-21T10:54:29;95683.25;;;22.66;35.72
13314;BME280;6725;48.112;11.604;2023-02-21T10:56:55;95686.50;;;21.99;37.00
13314;BME280;6725;48.112;11.604;2023-02-21T10:59:25;95681.53;;;22.03;36.39
13314;BME280;6725;48.112;11.604;2023-02-21T11:01:51;95681.94;;;21.78;36.86
13314;BME280;6725;48.112;11.604;2023-02-21T11:06:51;95677.97;;;22.12;36.95
13314;BME280;6725;48.112;11.604;2023-02-21T11:12:22;95666.19;;;21.84;36.61
13314;BME280;6725;48.112;11.604;2023-02-21T11:17:23;95670.22;;;21.74;37.67
13314;BME280;6725;48.112;11.604;2023-02-21T11:19:52;95667.38;;;21.92;36.75
13314;BME280;6725;48.112;11.604;2023-02-21T11:22:23;95664.78;;;21.02;37.60
13314;BME280;6725;48.112;11.604;2023-02-21T11:27:27;95651.50;;;20.61;38.10
13314;BME280;6725;48.112;11.604;2023-02-21T11:29:53;95647.25;;;19.72;39.50
13314;BME280;6725;48.112;11.604;2023-02-21T11:32:39;95637.09;;;19.17;41.33
13314;BME280;6725;48.112;11.604;2023-02-21T11:40:40;95625.75;;;17.79;45.79
13314;BME280;6725;48.112;11.604;2023-02-21T11:43:18;95627.53;;;17.48;47.02
13314;BME280;6725;48.112;11.604;2023-02-21T11:53:55;95604.06;;;17.15;52.86
13314;BME280;6725;48.112;11.604;2023-02-21T11:56:47;95599.31;;;17.15;51.90
13314;BME280;6725;48.112;11.604;2023-02-21T12:21:32;95556.84;;;16.59;58.42
13314;BME280;6725;48.112;11.604;2023-02-21T12:30:09;95557.63;;;16.60;57.54
13314;BME280;6725;48.112;11.604;2023-02-21T12:33:17;95545.69;;;16.63;57.49
13314;BME280;6725;48.112;11.604;2023-02-21T12:36:12;95542.09;;;16.78;57.69
13314;BME280;6725;48.112;11.604;2023-02-21T12:44:22;95532.25;;;16.65;58.67
13314;BME280;6725;48.112;11.604;2023-02-21T12:47:00;95532.66;;;16.51;59.23
13314;BME280;6725;48.112;11.604;2023-02-21T12:49:44;95521.97;;;16.53;58.08
13314;BME280;6725;48.112;11.604;2023-02-21T12:52:34;95526.94;;;16.58;59.68
13314;BME280;6725;48.112;11.604;2023-02-21T13:00:15;95513.56;;;16.43;59.80
13314;BME280;6725;48.112;11.604;2023-02-21T13:05:37;95495.53;;;16.26;61.06
13314;BME280;6725;48.112;11.604;2023-02-21T13:11:15;95496.97;;;16.31;59.94
13314;BME280;6725;48.112;11.604;2023-02-21T13:13:43;95485.84;;;16.34;61.14
13314;BME280;6725;48.112;11.604;2023-02-21T13:16:10;95486.94;;;16.24;59.89
13314;BME280;6725;48.112;11.604;2023-02-21T13:18:51;95483.91;;;16.06;60.37
13314;BME280;6725;48.112;11.604;2023-02-21T13:32:58;95458.56;;;16.53;62.01
13314;BME280;6725;48.112;11.604;2023-02-21T13:35:38;95466.69;;;16.43;62.03
13314;BME280;6725;48.112;11.604;2023-02-21T13:38:09;95452.66;;;16.38;62.92
13314;BME280;6725;48.112;11.604;2023-02-21T13:41:04;95457.91;;;16.49;63.52
13314;BME280;6725;48.112;11.604;2023-02-21T13:43:34;95445.88;;;16.55;63.05
13314;BME280;6725;48.112;11.604;2023-02-21T14:08:25;95421.25;;;16.35;66.15
13314;BME280;6725;48.112;11.604;2023-02-21T14:10:53;95416.06;;;16.37;68.01
13314;BME280;6725;48.112;11.604;2023-02-21T14:18:46;95409.34;;;16.38;65.14
13314;BME280;6725;48.112;11.604;2023-02-21T14:21:45;95405.47;;;16.36;64.66
13314;BME280;6725;48.112;11.604;2023-02-21T14:24:19;95396.78;;;16.37;65.75
13314;BME280;6725;48.112;11.604;2023-02-21T14:26:49;95396.09;;;16.33;66.55
13314;BME280;6725;48.112;11.604;2023-02-21T14:29:27;95395.41;;;16.29;67.19
13314;BME280;6725;48.112;11.604;2023-02-21T14:31:54;95391.47;;;16.30;67.53
13314;BME280;6725;48.112;11.604;2023-02-21T14:34:27;95392.44;;;16.24;68.66
13314;BME280;6725;48.112;11.604;2023-02-21T14:36:57;95388.72;;;16.30;70.09
13314;BME280;6725;48.112;11.604;2023-02-21T14:39:29;95388.59;;;16.21;68.20
13314;BME280;6725;48.112;11.604;2023-02-21T14:42:08;95380.66;;;16.23;69.05
13314;BME280;6725;48.112;11.604;2023-02-21T14:50:13;95380.00;;;16.19;70.28
13314;BME280;6725;48.112;11.604;2023-02-21T14:58:30;95364.63;;;16.06;69.61
13314;BME280;6725;48.112;11.604;2023-02-21T15:04:04;95356.16;;;16.00;70.73
13314;BME280;6725;48.112;11.604;2023-02-21T15:06:33;95356.94;;;16.01;71.21
13314;BME280;6725;48.112;11.604;2023-02-21T15:09:11;95351.53;;;15.97;72.00
13314;BME280;6725;48.112;11.604;2023-02-21T15:11:38;95349.66;;;15.94;73.11
13314;BME280;6725;48.112;11.604;2023-02-21T15:16:38;95349.00;;;15.90;72.60
13314;BME280;6725;48.112;11.604;2023-02-21T15:19:05;95345.56;;;15.86;72.38
13314;BME280;6725;48.112;11.604;2023-02-21T15:21:30;95345.88;;;15.88;72.43
13314;BME280;6725;48.112;11.604;2023-02-21T15:24:11;95341.47;;;15.91;71.68
13314;BME280;6725;48.112;11.604;2023-02-21T15:26:37;95340.38;;;15.88;71.35
13314;BME280;6725;48.112;11.604;2023-02-21T15:29:14;95339.84;;;15.93;70.54
13314;BME280;6725;48.112;11.604;2023-02-21T15:31:48;95337.53;;;15.92;69.93
13314;BME280;6725;48.112;11.604;2023-02-21T15:34:19;95333.00;;;15.85;71.79
13314;BME280;6725;48.112;11.604;2023-02-21T15:36:48;95333.00;;;15.85;71.39
13314;BME280;6725;48.112;11.604;2023-02-21T15:39:27;95322.75;;;15.86;71.64
13314;BME280;6725;48.112;11.604;2023-02-21T15:41:55;95325.63;;;15.82;70.19
13314;BME280;6725;48.112;11.604;2023-02-21T15:47:18;95317.44;;;15.79;70.77
13314;BME280;6725;48.112;11.604;2023-02-21T15:50:17;95323.59;;;15.70;71.25
13314;BME280;6725;48.112;11.604;2023-02-21T15:52:48;95315.69;;;15.72;71.02
13314;BME280;6725;48.112;11.604;2023-02-21T15:57:46;95312.66;;;15.54;72.58
13314;BME280;6725;48.112;11.604;2023-02-21T16:00:43;95306.81;;;15.52;72.56
13314;BME280;6725;48.112;11.604;2023-02-21T16:11:45;95299.16;;;15.31;73.26
13314;BME280;6725;48.112;11.604;2023-02-21T16:17:06;95301.94;;;15.15;75.58
13314;BME280;6725;48.112;11.604;2023-02-21T16:19:33;95298.63;;;15.08;75.70
13314;BME280;6725;48.112;11.604;2023-02-21T16:24:37;95299.25;;;14.99;77.93
13314;BME280;6725;48.112;11.604;2023-02-21T16:27:08;95304.25;;;14.88;79.59